Estación Meteorológica Peña el Pijo (Robertgarden) [ 10/20/18 08:03:21 CEST ]

Fecha Hora Presion(HPa) Temp (°C) Humedad % Rocio (°C) Viento ( m/s) Direccion Lluvia 1Hora(mm) Lluvia 24H(mm) LLuvia Total(mm)
2018-Jun-07 01:01:46 1008.800 7.4 84 4.9       4.66 266.25
2018-Jun-07 02:02:00 1008.700 7.2 85 4.8       4.66 266.25
2018-Jun-07 03:01:41 1009.000 6.6 86 4.4       4.66 266.25
2018-Jun-07 04:01:49 1008.800 6.6 86 4.4       4.66 266.25
2018-Jun-07 05:01:39 1008.700 6.2 87 4.2       4.66 266.25
2018-Jun-07 06:01:39 1008.600 6.5 87 4.5       4.66 266.25
2018-Jun-07 07:01:41 1008.800 5.9 87 3.9       4.66 266.25
2018-Jun-07 08:01:52 1009.000 8.9 89 7.2       4.66 266.25
2018-Jun-07 09:01:44 1009.200 12.9 88 10.9       4.66 266.25
2018-Jun-07 10:01:48 1009.700 16.3 71 11.1 0.6 WNW   4.66 266.25
2018-Jun-07 11:01:38 1009.800 19.3 60 11.4       4.66 266.25
2018-Jun-07 12:01:56 1009.700 20.4 51 9.9       4.66 266.25
2018-Jun-07 13:01:42 1009.700 20.2 47 8.5       4.66 266.25
2018-Jun-07 14:01:47 1009.600 21.3 45 8.8       4.66 266.25
2018-Jun-07 15:01:45 1009.100 21.9 41 8.0       4.66 266.25
2018-Jun-07 16:01:55 1009.100 22.6 40 8.3       2.59 266.25
2018-Jun-07 17:01:59 1008.800 24.2 37 8.5 0.5 SSW   0.51 266.25
2018-Jun-07 18:01:51 1008.700 23.5 38 8.3         266.25
2018-Jun-07 19:01:37 1008.600 23.5 36 7.5         266.25
2018-Jun-07 20:01:58 1008.600 20.1 44 7.4         266.25
2018-Jun-07 21:01:48 1008.900 18.3 50 7.7         266.25
2018-Jun-07 22:01:46 1009.300 15.6 59 7.6         266.25
2018-Jun-07 23:01:40 1009.600 13.9 67 7.8         266.25

Temperatura Máxima:24°    Temperatura Mínima:
Presión Máxima:1009.800 Hpa    Presión Mínima:1008.600 Hpa


Volver